sensor_id;sensor_type;location;lat;lon;timestamp;P1;durP1;ratioP1;P2;durP2;ratioP2
24259;SDS011;12384;48.112;18.418;2022-11-20T00:01:32;49.00;;;36.30;;
24259;SDS011;12384;48.112;18.418;2022-11-20T00:04:01;50.40;;;37.57;;
24259;SDS011;12384;48.112;18.418;2022-11-20T00:06:29;54.50;;;39.37;;
24259;SDS011;12384;48.112;18.418;2022-11-20T00:08:59;53.80;;;37.07;;
24259;SDS011;12384;48.112;18.418;2022-11-20T00:11:28;56.00;;;39.27;;
24259;SDS011;12384;48.112;18.418;2022-11-20T00:13:59;58.83;;;41.07;;
24259;SDS011;12384;48.112;18.418;2022-11-20T00:16:29;53.63;;;37.67;;
24259;SDS011;12384;48.112;18.418;2022-11-20T00:18:59;54.53;;;37.23;;
24259;SDS011;12384;48.112;18.418;2022-11-20T00:21:28;60.03;;;38.53;;
24259;SDS011;12384;48.112;18.418;2022-11-20T00:23:58;57.27;;;39.03;;
24259;SDS011;12384;48.112;18.418;2022-11-20T00:26:27;52.33;;;38.17;;
24259;SDS011;12384;48.112;18.418;2022-11-20T00:28:57;52.97;;;37.90;;
24259;SDS011;12384;48.112;18.418;2022-11-20T00:31:26;54.67;;;38.33;;
24259;SDS011;12384;48.112;18.418;2022-11-20T00:33:55;57.20;;;38.57;;
24259;SDS011;12384;48.112;18.418;2022-11-20T00:36:25;55.70;;;38.67;;
24259;SDS011;12384;48.112;18.418;2022-11-20T00:38:55;54.60;;;38.03;;
24259;SDS011;12384;48.112;18.418;2022-11-20T00:41:26;55.00;;;37.77;;
24259;SDS011;12384;48.112;18.418;2022-11-20T00:43:56;51.73;;;36.60;;
24259;SDS011;12384;48.112;18.418;2022-11-20T00:46:25;58.67;;;38.80;;
24259;SDS011;12384;48.112;18.418;2022-11-20T00:48:54;60.57;;;40.67;;
24259;SDS011;12384;48.112;18.418;2022-11-20T00:51:23;55.90;;;37.50;;
24259;SDS011;12384;48.112;18.418;2022-11-20T00:53:54;49.60;;;37.07;;
24259;SDS011;12384;48.112;18.418;2022-11-20T00:56:23;55.97;;;37.13;;
24259;SDS011;12384;48.112;18.418;2022-11-20T00:58:53;51.30;;;37.87;;
24259;SDS011;12384;48.112;18.418;2022-11-20T01:01:22;54.57;;;37.70;;
24259;SDS011;12384;48.112;18.418;2022-11-20T01:03:53;56.47;;;36.47;;
24259;SDS011;12384;48.112;18.418;2022-11-20T01:06:23;53.63;;;37.17;;
24259;SDS011;12384;48.112;18.418;2022-11-20T01:08:54;54.17;;;35.73;;
24259;SDS011;12384;48.112;18.418;2022-11-20T01:11:24;49.10;;;35.90;;
24259;SDS011;12384;48.112;18.418;2022-11-20T01:13:55;50.70;;;35.97;;
24259;SDS011;12384;48.112;18.418;2022-11-20T01:16:25;43.07;;;33.87;;
24259;SDS011;12384;48.112;18.418;2022-11-20T01:18:56;43.30;;;31.77;;
24259;SDS011;12384;48.112;18.418;2022-11-20T01:21:26;43.23;;;32.70;;
24259;SDS011;12384;48.112;18.418;2022-11-20T01:23:56;51.40;;;35.17;;
24259;SDS011;12384;48.112;18.418;2022-11-20T01:26:26;47.27;;;34.10;;
24259;SDS011;12384;48.112;18.418;2022-11-20T01:28:57;45.37;;;33.73;;
24259;SDS011;12384;48.112;18.418;2022-11-20T01:31:27;48.00;;;33.50;;
24259;SDS011;12384;48.112;18.418;2022-11-20T01:33:58;44.03;;;34.13;;
24259;SDS011;12384;48.112;18.418;2022-11-20T01:36:28;50.87;;;35.23;;
24259;SDS011;12384;48.112;18.418;2022-11-20T01:38:58;46.37;;;33.53;;
24259;SDS011;12384;48.112;18.418;2022-11-20T01:41:28;48.07;;;34.27;;
24259;SDS011;12384;48.112;18.418;2022-11-20T01:44:17;44.63;;;33.60;;
24259;SDS011;12384;48.112;18.418;2022-11-20T01:46:49;43.37;;;33.27;;
24259;SDS011;12384;48.112;18.418;2022-11-20T01:49:23;44.03;;;34.23;;
24259;SDS011;12384;48.112;18.418;2022-11-20T01:51:55;40.50;;;32.10;;
24259;SDS011;12384;48.112;18.418;2022-11-20T01:54:28;45.10;;;33.10;;
24259;SDS011;12384;48.112;18.418;2022-11-20T01:56:59;41.83;;;32.47;;
24259;SDS011;12384;48.112;18.418;2022-11-20T01:59:30;43.30;;;33.03;;
24259;SDS011;12384;48.112;18.418;2022-11-20T02:01:59;45.97;;;33.83;;
24259;SDS011;12384;48.112;18.418;2022-11-20T02:04:27;46.53;;;33.80;;
24259;SDS011;12384;48.112;18.418;2022-11-20T02:06:57;49.70;;;35.30;;
24259;SDS011;12384;48.112;18.418;2022-11-20T02:09:28;51.53;;;35.93;;
24259;SDS011;12384;48.112;18.418;2022-11-20T02:11:56;53.70;;;36.60;;
24259;SDS011;12384;48.112;18.418;2022-11-20T02:14:26;43.67;;;31.83;;
24259;SDS011;12384;48.112;18.418;2022-11-20T02:16:55;42.97;;;32.60;;
24259;SDS011;12384;48.112;18.418;2022-11-20T02:19:24;43.13;;;33.57;;
24259;SDS011;12384;48.112;18.418;2022-11-20T02:21:58;40.80;;;32.00;;
24259;SDS011;12384;48.112;18.418;2022-11-20T02:24:34;46.17;;;33.90;;
24259;SDS011;12384;48.112;18.418;2022-11-20T02:27:03;44.60;;;33.93;;
24259;SDS011;12384;48.112;18.418;2022-11-20T02:29:36;44.60;;;33.80;;
24259;SDS011;12384;48.112;18.418;2022-11-20T02:32:16;43.57;;;32.90;;
24259;SDS011;12384;48.112;18.418;2022-11-20T02:34:46;41.63;;;32.13;;
24259;SDS011;12384;48.112;18.418;2022-11-20T02:37:14;39.80;;;31.03;;
24259;SDS011;12384;48.112;18.418;2022-11-20T02:39:45;37.50;;;30.77;;
24259;SDS011;12384;48.112;18.418;2022-11-20T02:42:16;33.40;;;28.60;;
24259;SDS011;12384;48.112;18.418;2022-11-20T02:44:44;36.97;;;29.97;;
24259;SDS011;12384;48.112;18.418;2022-11-20T02:47:12;36.47;;;29.80;;
24259;SDS011;12384;48.112;18.418;2022-11-20T02:49:41;37.37;;;31.83;;
24259;SDS011;12384;48.112;18.418;2022-11-20T02:52:09;38.10;;;29.97;;
24259;SDS011;12384;48.112;18.418;2022-11-20T02:54:37;36.07;;;29.10;;
24259;SDS011;12384;48.112;18.418;2022-11-20T02:57:07;37.13;;;29.17;;
24259;SDS011;12384;48.112;18.418;2022-11-20T02:59:35;41.87;;;30.63;;
24259;SDS011;12384;48.112;18.418;2022-11-20T03:02:04;38.97;;;30.87;;
24259;SDS011;12384;48.112;18.418;2022-11-20T03:04:32;44.27;;;33.10;;
24259;SDS011;12384;48.112;18.418;2022-11-20T03:07:00;39.27;;;29.10;;
24259;SDS011;12384;48.112;18.418;2022-11-20T03:09:29;34.50;;;27.80;;
24259;SDS011;12384;48.112;18.418;2022-11-20T03:11:57;37.73;;;29.27;;
24259;SDS011;12384;48.112;18.418;2022-11-20T03:14:27;41.73;;;31.83;;
24259;SDS011;12384;48.112;18.418;2022-11-20T03:16:55;35.57;;;29.13;;
24259;SDS011;12384;48.112;18.418;2022-11-20T03:19:24;37.23;;;29.60;;
24259;SDS011;12384;48.112;18.418;2022-11-20T03:21:52;36.93;;;29.13;;
24259;SDS011;12384;48.112;18.418;2022-11-20T03:24:20;31.73;;;27.90;;
24259;SDS011;12384;48.112;18.418;2022-11-20T03:26:49;39.43;;;29.93;;
24259;SDS011;12384;48.112;18.418;2022-11-20T03:29:17;42.20;;;30.90;;
24259;SDS011;12384;48.112;18.418;2022-11-20T03:31:47;34.37;;;29.30;;
24259;SDS011;12384;48.112;18.418;2022-11-20T03:34:15;36.93;;;29.30;;
24259;SDS011;12384;48.112;18.418;2022-11-20T03:36:44;33.97;;;28.13;;
24259;SDS011;12384;48.112;18.418;2022-11-20T03:39:13;42.20;;;31.80;;
24259;SDS011;12384;48.112;18.418;2022-11-20T03:41:41;36.03;;;29.43;;
24259;SDS011;12384;48.112;18.418;2022-11-20T03:44:10;35.47;;;28.90;;
24259;SDS011;12384;48.112;18.418;2022-11-20T03:46:39;37.17;;;28.87;;
24259;SDS011;12384;48.112;18.418;2022-11-20T03:49:08;33.37;;;27.33;;
24259;SDS011;12384;48.112;18.418;2022-11-20T03:51:36;31.10;;;26.93;;
24259;SDS011;12384;48.112;18.418;2022-11-20T03:54:06;31.97;;;28.10;;
24259;SDS011;12384;48.112;18.418;2022-11-20T03:56:36;38.83;;;29.87;;
24259;SDS011;12384;48.112;18.418;2022-11-20T03:59:06;40.20;;;30.00;;
24259;SDS011;12384;48.112;18.418;2022-11-20T04:01:34;37.83;;;28.23;;
24259;SDS011;12384;48.112;18.418;2022-11-20T04:04:04;31.13;;;26.90;;
24259;SDS011;12384;48.112;18.418;2022-11-20T04:06:36;32.50;;;27.53;;
24259;SDS011;12384;48.112;18.418;2022-11-20T04:09:05;30.23;;;26.37;;
24259;SDS011;12384;48.112;18.418;2022-11-20T04:11:35;32.00;;;27.17;;
24259;SDS011;12384;48.112;18.418;2022-11-20T04:14:12;41.53;;;29.60;;
24259;SDS011;12384;48.112;18.418;2022-11-20T04:16:42;31.37;;;27.17;;
24259;SDS011;12384;48.112;18.418;2022-11-20T04:19:11;40.10;;;31.87;;
24259;SDS011;12384;48.112;18.418;2022-11-20T04:21:42;37.80;;;30.33;;
24259;SDS011;12384;48.112;18.418;2022-11-20T04:24:11;37.87;;;30.97;;
24259;SDS011;12384;48.112;18.418;2022-11-20T04:26:40;33.10;;;28.47;;
24259;SDS011;12384;48.112;18.418;2022-11-20T04:29:10;31.80;;;27.30;;
24259;SDS011;12384;48.112;18.418;2022-11-20T04:31:39;36.53;;;29.50;;
24259;SDS011;12384;48.112;18.418;2022-11-20T04:34:07;28.67;;;25.57;;
24259;SDS011;12384;48.112;18.418;2022-11-20T04:36:39;32.67;;;27.33;;
24259;SDS011;12384;48.112;18.418;2022-11-20T04:39:12;27.77;;;24.87;;
24259;SDS011;12384;48.112;18.418;2022-11-20T04:41:43;32.90;;;26.93;;
24259;SDS011;12384;48.112;18.418;2022-11-20T04:44:11;29.27;;;26.00;;
24259;SDS011;12384;48.112;18.418;2022-11-20T04:46:40;31.80;;;26.33;;
24259;SDS011;12384;48.112;18.418;2022-11-20T04:49:10;33.73;;;28.53;;
24259;SDS011;12384;48.112;18.418;2022-11-20T04:51:38;28.67;;;25.53;;
24259;SDS011;12384;48.112;18.418;2022-11-20T04:54:07;28.77;;;24.63;;
24259;SDS011;12384;48.112;18.418;2022-11-20T04:56:38;29.27;;;25.17;;
24259;SDS011;12384;48.112;18.418;2022-11-20T04:59:06;27.63;;;24.47;;
24259;SDS011;12384;48.112;18.418;2022-11-20T05:01:34;25.73;;;23.10;;
24259;SDS011;12384;48.112;18.418;2022-11-20T05:04:03;27.13;;;24.23;;
24259;SDS011;12384;48.112;18.418;2022-11-20T05:06:32;29.10;;;25.77;;
24259;SDS011;12384;48.112;18.418;2022-11-20T05:09:00;26.23;;;23.50;;
24259;SDS011;12384;48.112;18.418;2022-11-20T05:11:28;30.40;;;26.47;;
24259;SDS011;12384;48.112;18.418;2022-11-20T05:13:59;38.37;;;29.67;;
24259;SDS011;12384;48.112;18.418;2022-11-20T05:16:28;32.77;;;28.00;;
24259;SDS011;12384;48.112;18.418;2022-11-20T05:18:56;34.13;;;27.80;;
24259;SDS011;12384;48.112;18.418;2022-11-20T05:21:24;55.43;;;37.47;;
24259;SDS011;12384;48.112;18.418;2022-11-20T05:23:54;41.53;;;31.27;;
24259;SDS011;12384;48.112;18.418;2022-11-20T05:26:22;40.10;;;32.10;;
24259;SDS011;12384;48.112;18.418;2022-11-20T05:28:51;40.37;;;32.27;;
24259;SDS011;12384;48.112;18.418;2022-11-20T05:31:21;43.03;;;33.47;;
24259;SDS011;12384;48.112;18.418;2022-11-20T05:33:54;42.53;;;31.43;;
24259;SDS011;12384;48.112;18.418;2022-11-20T05:36:23;52.03;;;36.37;;
24259;SDS011;12384;48.112;18.418;2022-11-20T05:38:52;46.13;;;33.40;;
24259;SDS011;12384;48.112;18.418;2022-11-20T05:41:27;36.47;;;30.33;;
24259;SDS011;12384;48.112;18.418;2022-11-20T05:43:55;37.57;;;29.83;;
24259;SDS011;12384;48.112;18.418;2022-11-20T05:46:26;39.07;;;31.37;;
24259;SDS011;12384;48.112;18.418;2022-11-20T05:48:55;33.70;;;29.20;;
24259;SDS011;12384;48.112;18.418;2022-11-20T05:51:24;37.07;;;29.17;;
24259;SDS011;12384;48.112;18.418;2022-11-20T05:53:53;41.37;;;31.37;;
24259;SDS011;12384;48.112;18.418;2022-11-20T05:56:24;40.17;;;30.97;;
24259;SDS011;12384;48.112;18.418;2022-11-20T05:58:53;40.73;;;30.43;;
24259;SDS011;12384;48.112;18.418;2022-11-20T06:01:22;39.80;;;31.10;;
24259;SDS011;12384;48.112;18.418;2022-11-20T06:03:53;36.53;;;30.93;;
24259;SDS011;12384;48.112;18.418;2022-11-20T06:06:22;36.20;;;29.57;;
24259;SDS011;12384;48.112;18.418;2022-11-20T06:08:51;31.77;;;28.13;;
24259;SDS011;12384;48.112;18.418;2022-11-20T06:11:20;33.37;;;27.20;;
24259;SDS011;12384;48.112;18.418;2022-11-20T06:13:48;32.10;;;25.93;;
24259;SDS011;12384;48.112;18.418;2022-11-20T06:16:18;39.27;;;29.77;;
24259;SDS011;12384;48.112;18.418;2022-11-20T06:18:48;36.13;;;28.70;;
24259;SDS011;12384;48.112;18.418;2022-11-20T06:21:18;36.93;;;29.23;;
24259;SDS011;12384;48.112;18.418;2022-11-20T06:23:49;32.07;;;26.33;;
24259;SDS011;12384;48.112;18.418;2022-11-20T06:26:18;36.00;;;29.20;;
24259;SDS011;12384;48.112;18.418;2022-11-20T06:28:48;28.03;;;24.80;;
24259;SDS011;12384;48.112;18.418;2022-11-20T06:31:18;27.30;;;24.40;;
24259;SDS011;12384;48.112;18.418;2022-11-20T06:33:47;27.60;;;24.53;;
24259;SDS011;12384;48.112;18.418;2022-11-20T06:36:18;30.77;;;26.10;;
24259;SDS011;12384;48.112;18.418;2022-11-20T06:38:48;38.70;;;29.27;;
24259;SDS011;12384;48.112;18.418;2022-11-20T06:41:18;33.47;;;27.13;;
24259;SDS011;12384;48.112;18.418;2022-11-20T06:43:47;33.57;;;28.47;;
24259;SDS011;12384;48.112;18.418;2022-11-20T06:46:16;30.93;;;25.40;;
24259;SDS011;12384;48.112;18.418;2022-11-20T06:48:46;30.30;;;26.97;;
24259;SDS011;12384;48.112;18.418;2022-11-20T06:51:15;30.57;;;26.53;;
24259;SDS011;12384;48.112;18.418;2022-11-20T06:53:45;35.90;;;28.07;;
24259;SDS011;12384;48.112;18.418;2022-11-20T06:56:13;33.63;;;28.40;;
24259;SDS011;12384;48.112;18.418;2022-11-20T06:58:42;30.50;;;26.93;;
24259;SDS011;12384;48.112;18.418;2022-11-20T07:01:11;38.03;;;31.40;;
24259;SDS011;12384;48.112;18.418;2022-11-20T07:03:41;38.37;;;29.90;;
24259;SDS011;12384;48.112;18.418;2022-11-20T07:06:09;34.60;;;28.87;;
24259;SDS011;12384;48.112;18.418;2022-11-20T07:08:38;33.43;;;28.23;;
24259;SDS011;12384;48.112;18.418;2022-11-20T07:11:08;30.40;;;27.00;;
24259;SDS011;12384;48.112;18.418;2022-11-20T07:13:40;29.20;;;25.63;;
24259;SDS011;12384;48.112;18.418;2022-11-20T07:16:08;31.27;;;27.37;;
24259;SDS011;12384;48.112;18.418;2022-11-20T07:18:37;28.33;;;24.93;;
24259;SDS011;12384;48.112;18.418;2022-11-20T07:21:06;29.27;;;26.13;;
24259;SDS011;12384;48.112;18.418;2022-11-20T07:23:36;29.87;;;26.33;;
24259;SDS011;12384;48.112;18.418;2022-11-20T07:26:05;33.33;;;26.93;;
24259;SDS011;12384;48.112;18.418;2022-11-20T07:28:36;27.03;;;24.23;;
24259;SDS011;12384;48.112;18.418;2022-11-20T07:31:04;29.10;;;25.73;;
24259;SDS011;12384;48.112;18.418;2022-11-20T07:33:34;27.73;;;24.83;;
24259;SDS011;12384;48.112;18.418;2022-11-20T07:36:02;27.27;;;24.50;;
24259;SDS011;12384;48.112;18.418;2022-11-20T07:38:31;27.23;;;24.40;;
24259;SDS011;12384;48.112;18.418;2022-11-20T07:40:59;26.37;;;23.77;;
24259;SDS011;12384;48.112;18.418;2022-11-20T07:43:28;26.83;;;24.03;;
24259;SDS011;12384;48.112;18.418;2022-11-20T07:45:59;25.37;;;22.77;;
24259;SDS011;12384;48.112;18.418;2022-11-20T07:48:27;26.87;;;23.97;;
24259;SDS011;12384;48.112;18.418;2022-11-20T07:50:56;25.73;;;23.03;;
24259;SDS011;12384;48.112;18.418;2022-11-20T07:53:24;25.03;;;22.30;;
24259;SDS011;12384;48.112;18.418;2022-11-20T07:55:52;25.47;;;22.73;;
24259;SDS011;12384;48.112;18.418;2022-11-20T07:58:21;30.37;;;26.57;;
24259;SDS011;12384;48.112;18.418;2022-11-20T08:00:49;30.90;;;26.37;;
24259;SDS011;12384;48.112;18.418;2022-11-20T08:03:19;28.13;;;25.23;;
24259;SDS011;12384;48.112;18.418;2022-11-20T08:05:50;30.53;;;26.07;;
24259;SDS011;12384;48.112;18.418;2022-11-20T08:08:19;29.53;;;26.33;;
24259;SDS011;12384;48.112;18.418;2022-11-20T08:10:48;28.87;;;25.83;;
24259;SDS011;12384;48.112;18.418;2022-11-20T08:13:16;31.17;;;27.27;;
24259;SDS011;12384;48.112;18.418;2022-11-20T08:16:02;28.67;;;24.87;;
24259;SDS011;12384;48.112;18.418;2022-11-20T08:18:32;29.10;;;26.03;;
24259;SDS011;12384;48.112;18.418;2022-11-20T08:21:01;29.63;;;26.33;;
24259;SDS011;12384;48.112;18.418;2022-11-20T08:23:31;28.53;;;24.83;;
24259;SDS011;12384;48.112;18.418;2022-11-20T08:25:59;28.00;;;24.70;;
24259;SDS011;12384;48.112;18.418;2022-11-20T08:28:27;27.43;;;24.40;;
24259;SDS011;12384;48.112;18.418;2022-11-20T08:30:57;27.77;;;24.73;;
24259;SDS011;12384;48.112;18.418;2022-11-20T08:33:27;30.57;;;25.40;;
24259;SDS011;12384;48.112;18.418;2022-11-20T08:35:59;26.67;;;23.90;;
24259;SDS011;12384;48.112;18.418;2022-11-20T08:38:28;26.97;;;24.17;;
24259;SDS011;12384;48.112;18.418;2022-11-20T08:40:57;27.13;;;22.63;;
24259;SDS011;12384;48.112;18.418;2022-11-20T08:43:44;26.40;;;23.63;;
24259;SDS011;12384;48.112;18.418;2022-11-20T08:46:12;28.83;;;24.17;;
24259;SDS011;12384;48.112;18.418;2022-11-20T08:48:40;27.17;;;24.30;;
24259;SDS011;12384;48.112;18.418;2022-11-20T08:51:11;25.70;;;23.00;;
24259;SDS011;12384;48.112;18.418;2022-11-20T08:53:39;23.60;;;21.10;;
24259;SDS011;12384;48.112;18.418;2022-11-20T08:56:09;25.53;;;22.87;;
24259;SDS011;12384;48.112;18.418;2022-11-20T08:58:37;25.07;;;22.37;;
24259;SDS011;12384;48.112;18.418;2022-11-20T09:01:26;23.13;;;20.73;;
24259;SDS011;12384;48.112;18.418;2022-11-20T09:03:55;25.17;;;21.50;;
24259;SDS011;12384;48.112;18.418;2022-11-20T09:06:25;24.07;;;20.90;;
24259;SDS011;12384;48.112;18.418;2022-11-20T09:08:54;27.33;;;23.53;;
24259;SDS011;12384;48.112;18.418;2022-11-20T09:11:30;25.40;;;22.67;;
24259;SDS011;12384;48.112;18.418;2022-11-20T09:13:58;26.43;;;22.63;;
24259;SDS011;12384;48.112;18.418;2022-11-20T09:16:29;26.83;;;23.97;;
24259;SDS011;12384;48.112;18.418;2022-11-20T09:18:57;26.83;;;23.93;;
24259;SDS011;12384;48.112;18.418;2022-11-20T09:21:47;27.20;;;22.77;;
24259;SDS011;12384;48.112;18.418;2022-11-20T09:24:15;26.47;;;23.67;;
24259;SDS011;12384;48.112;18.418;2022-11-20T09:26:44;26.40;;;23.03;;
24259;SDS011;12384;48.112;18.418;2022-11-20T09:29:12;26.33;;;23.40;;
24259;SDS011;12384;48.112;18.418;2022-11-20T09:31:41;27.27;;;24.27;;
24259;SDS011;12384;48.112;18.418;2022-11-20T09:34:09;27.37;;;24.37;;
24259;SDS011;12384;48.112;18.418;2022-11-20T09:36:38;26.37;;;23.50;;
24259;SDS011;12384;48.112;18.418;2022-11-20T09:39:07;29.13;;;26.00;;
24259;SDS011;12384;48.112;18.418;2022-11-20T09:44:49;27.90;;;24.47;;
24259;SDS011;12384;48.112;18.418;2022-11-20T09:47:30;27.07;;;24.20;;
24259;SDS011;12384;48.112;18.418;2022-11-20T09:50:16;26.50;;;23.80;;
24259;SDS011;12384;48.112;18.418;2022-11-20T09:52:54;27.20;;;24.30;;
24259;SDS011;12384;48.112;18.418;2022-11-20T09:55:39;28.30;;;24.43;;
24259;SDS011;12384;48.112;18.418;2022-11-20T09:58:14;24.57;;;21.73;;
24259;SDS011;12384;48.112;18.418;2022-11-20T10:00:48;28.40;;;24.10;;
24259;SDS011;12384;48.112;18.418;2022-11-20T10:03:20;25.77;;;23.30;;
24259;SDS011;12384;48.112;18.418;2022-11-20T10:05:54;26.10;;;23.30;;
24259;SDS011;12384;48.112;18.418;2022-11-20T10:08:24;27.77;;;24.80;;
24259;SDS011;12384;48.112;18.418;2022-11-20T10:11:00;27.40;;;24.27;;
24259;SDS011;12384;48.112;18.418;2022-11-20T10:13:37;27.50;;;24.60;;
24259;SDS011;12384;48.112;18.418;2022-11-20T10:16:16;26.17;;;23.10;;
24259;SDS011;12384;48.112;18.418;2022-11-20T10:18:57;25.93;;;23.17;;
24259;SDS011;12384;48.112;18.418;2022-11-20T10:21:40;27.93;;;24.90;;
24259;SDS011;12384;48.112;18.418;2022-11-20T10:24:29;29.07;;;25.43;;
24259;SDS011;12384;48.112;18.418;2022-11-20T10:27:18;25.27;;;22.40;;
24259;SDS011;12384;48.112;18.418;2022-11-20T10:30:07;25.27;;;22.67;;
24259;SDS011;12384;48.112;18.418;2022-11-20T10:32:39;26.03;;;22.97;;
24259;SDS011;12384;48.112;18.418;2022-11-20T10:35:16;25.53;;;22.83;;
24259;SDS011;12384;48.112;18.418;2022-11-20T10:37:50;27.10;;;23.40;;
24259;SDS011;12384;48.112;18.418;2022-11-20T10:40:27;28.07;;;24.33;;
24259;SDS011;12384;48.112;18.418;2022-11-20T10:43:06;31.50;;;24.63;;
24259;SDS011;12384;48.112;18.418;2022-11-20T10:45:52;26.67;;;23.37;;
24259;SDS011;12384;48.112;18.418;2022-11-20T10:48:25;27.77;;;24.83;;
24259;SDS011;12384;48.112;18.418;2022-11-20T10:53:57;26.00;;;23.30;;
24259;SDS011;12384;48.112;18.418;2022-11-20T10:56:33;27.47;;;24.53;;
24259;SDS011;12384;48.112;18.418;2022-11-20T10:59:28;27.73;;;24.77;;
24259;SDS011;12384;48.112;18.418;2022-11-20T11:02:20;27.70;;;24.77;;
24259;SDS011;12384;48.112;18.418;2022-11-20T11:04:50;29.63;;;25.77;;
24259;SDS011;12384;48.112;18.418;2022-11-20T11:07:21;27.20;;;23.97;;
24259;SDS011;12384;48.112;18.418;2022-11-20T11:09:52;27.27;;;24.40;;
24259;SDS011;12384;48.112;18.418;2022-11-20T11:12:23;29.83;;;25.93;;
24259;SDS011;12384;48.112;18.418;2022-11-20T11:14:55;29.27;;;26.07;;
24259;SDS011;12384;48.112;18.418;2022-11-20T11:17:26;29.87;;;26.67;;
24259;SDS011;12384;48.112;18.418;2022-11-20T11:20:00;31.23;;;27.00;;
24259;SDS011;12384;48.112;18.418;2022-11-20T11:22:34;28.43;;;25.47;;
24259;SDS011;12384;48.112;18.418;2022-11-20T11:25:23;30.83;;;27.10;;
24259;SDS011;12384;48.112;18.418;2022-11-20T11:27:54;28.23;;;25.23;;
24259;SDS011;12384;48.112;18.418;2022-11-20T11:30:25;30.87;;;27.40;;
24259;SDS011;12384;48.112;18.418;2022-11-20T11:33:03;28.67;;;25.67;;
24259;SDS011;12384;48.112;18.418;2022-11-20T11:35:33;30.83;;;26.77;;
24259;SDS011;12384;48.112;18.418;2022-11-20T11:38:21;26.47;;;23.67;;
24259;SDS011;12384;48.112;18.418;2022-11-20T11:40:54;28.53;;;23.83;;
24259;SDS011;12384;48.112;18.418;2022-11-20T11:43:24;28.73;;;23.17;;
24259;SDS011;12384;48.112;18.418;2022-11-20T11:46:26;26.83;;;23.93;;
24259;SDS011;12384;48.112;18.418;2022-11-20T11:48:57;27.10;;;24.07;;
24259;SDS011;12384;48.112;18.418;2022-11-20T11:51:29;25.93;;;23.23;;
24259;SDS011;12384;48.112;18.418;2022-11-20T11:54:03;28.73;;;25.57;;
24259;SDS011;12384;48.112;18.418;2022-11-20T11:56:50;26.47;;;23.73;;
24259;SDS011;12384;48.112;18.418;2022-11-20T11:59:22;26.77;;;23.87;;
24259;SDS011;12384;48.112;18.418;2022-11-20T12:01:56;29.00;;;25.90;;
24259;SDS011;12384;48.112;18.418;2022-11-20T12:04:32;27.37;;;24.60;;
24259;SDS011;12384;48.112;18.418;2022-11-20T12:07:11;27.40;;;24.50;;
24259;SDS011;12384;48.112;18.418;2022-11-20T12:10:04;28.50;;;25.40;;
24259;SDS011;12384;48.112;18.418;2022-11-20T12:12:40;30.43;;;27.13;;
24259;SDS011;12384;48.112;18.418;2022-11-20T12:15:22;28.80;;;25.87;;
24259;SDS011;12384;48.112;18.418;2022-11-20T12:17:57;26.20;;;23.57;;
24259;SDS011;12384;48.112;18.418;2022-11-20T12:20:27;25.97;;;23.17;;
24259;SDS011;12384;48.112;18.418;2022-11-20T12:23:01;27.90;;;24.97;;
24259;SDS011;12384;48.112;18.418;2022-11-20T12:25:36;27.03;;;24.30;;
24259;SDS011;12384;48.112;18.418;2022-11-20T12:31:08;24.70;;;22.20;;
24259;SDS011;12384;48.112;18.418;2022-11-20T12:33:57;25.73;;;23.10;;
24259;SDS011;12384;48.112;18.418;2022-11-20T12:36:36;25.20;;;22.77;;
24259;SDS011;12384;48.112;18.418;2022-11-20T12:42:14;25.87;;;23.27;;
24259;SDS011;12384;48.112;18.418;2022-11-20T12:45:28;26.13;;;23.63;;
24259;SDS011;12384;48.112;18.418;2022-11-20T12:48:24;25.13;;;22.70;;
24259;SDS011;12384;48.112;18.418;2022-11-20T12:51:17;26.03;;;23.57;;
24259;SDS011;12384;48.112;18.418;2022-11-20T12:53:57;24.73;;;22.43;;
24259;SDS011;12384;48.112;18.418;2022-11-20T12:56:37;25.30;;;23.00;;
24259;SDS011;12384;48.112;18.418;2022-11-20T12:59:16;24.63;;;22.27;;
24259;SDS011;12384;48.112;18.418;2022-11-20T13:01:59;31.47;;;28.43;;
24259;SDS011;12384;48.112;18.418;2022-11-20T13:04:44;26.17;;;23.67;;
24259;SDS011;12384;48.112;18.418;2022-11-20T13:07:28;24.90;;;22.50;;
24259;SDS011;12384;48.112;18.418;2022-11-20T13:09:59;26.70;;;24.10;;
24259;SDS011;12384;48.112;18.418;2022-11-20T13:12:33;25.37;;;22.87;;
24259;SDS011;12384;48.112;18.418;2022-11-20T13:15:08;26.90;;;24.30;;
24259;SDS011;12384;48.112;18.418;2022-11-20T13:17:50;25.87;;;23.53;;
24259;SDS011;12384;48.112;18.418;2022-11-20T13:20:23;26.67;;;24.00;;
24259;SDS011;12384;48.112;18.418;2022-11-20T13:22:53;25.70;;;23.30;;
24259;SDS011;12384;48.112;18.418;2022-11-20T13:25:24;25.87;;;23.37;;
24259;SDS011;12384;48.112;18.418;2022-11-20T13:27:54;24.77;;;22.40;;
24259;SDS011;12384;48.112;18.418;2022-11-20T13:30:24;24.73;;;22.33;;
24259;SDS011;12384;48.112;18.418;2022-11-20T13:32:54;25.20;;;22.80;;
24259;SDS011;12384;48.112;18.418;2022-11-20T13:35:25;24.13;;;21.83;;
24259;SDS011;12384;48.112;18.418;2022-11-20T13:38:04;24.97;;;22.57;;
24259;SDS011;12384;48.112;18.418;2022-11-20T13:40:35;24.20;;;21.80;;
24259;SDS011;12384;48.112;18.418;2022-11-20T13:43:15;25.83;;;23.33;;
24259;SDS011;12384;48.112;18.418;2022-11-20T13:45:58;26.77;;;24.17;;
24259;SDS011;12384;48.112;18.418;2022-11-20T13:48:29;27.10;;;24.50;;
24259;SDS011;12384;48.112;18.418;2022-11-20T13:51:11;26.40;;;23.80;;
24259;SDS011;12384;48.112;18.418;2022-11-20T13:53:56;26.63;;;23.93;;
24259;SDS011;12384;48.112;18.418;2022-11-20T13:56:34;24.97;;;22.47;;
24259;SDS011;12384;48.112;18.418;2022-11-20T13:59:19;26.60;;;23.97;;
24259;SDS011;12384;48.112;18.418;2022-11-20T14:02:02;27.40;;;24.63;;
24259;SDS011;12384;48.112;18.418;2022-11-20T14:04:32;26.27;;;23.67;;
24259;SDS011;12384;48.112;18.418;2022-11-20T14:07:05;26.30;;;23.80;;
24259;SDS011;12384;48.112;18.418;2022-11-20T14:09:35;25.27;;;22.77;;
24259;SDS011;12384;48.112;18.418;2022-11-20T14:12:03;25.73;;;23.23;;
24259;SDS011;12384;48.112;18.418;2022-11-20T14:14:49;26.27;;;23.57;;
24259;SDS011;12384;48.112;18.418;2022-11-20T14:17:20;26.70;;;24.20;;
24259;SDS011;12384;48.112;18.418;2022-11-20T14:19:51;25.07;;;22.77;;
24259;SDS011;12384;48.112;18.418;2022-11-20T14:22:22;25.73;;;23.37;;
24259;SDS011;12384;48.112;18.418;2022-11-20T14:25:02;28.53;;;25.80;;
24259;SDS011;12384;48.112;18.418;2022-11-20T14:27:34;28.50;;;25.90;;
24259;SDS011;12384;48.112;18.418;2022-11-20T14:30:05;28.23;;;25.67;;
24259;SDS011;12384;48.112;18.418;2022-11-20T14:32:39;27.97;;;25.27;;
24259;SDS011;12384;48.112;18.418;2022-11-20T14:35:13;29.13;;;26.37;;
24259;SDS011;12384;48.112;18.418;2022-11-20T14:37:46;30.93;;;27.90;;
24259;SDS011;12384;48.112;18.418;2022-11-20T14:40:26;28.77;;;26.07;;
24259;SDS011;12384;48.112;18.418;2022-11-20T14:42:57;27.33;;;24.83;;
24259;SDS011;12384;48.112;18.418;2022-11-20T14:45:26;27.83;;;25.03;;
24259;SDS011;12384;48.112;18.418;2022-11-20T14:47:55;28.63;;;25.87;;
24259;SDS011;12384;48.112;18.418;2022-11-20T14:50:26;29.20;;;26.43;;